sensor_id;sensor_type;location;lat;lon;timestamp;P1;durP1;ratioP1;P2;durP2;ratioP2
51288;SDS011;37372;52.294;5.152;2022-11-23T00:00:21;25.98;;;13.20;;
51288;SDS011;37372;52.294;5.152;2022-11-23T00:02:51;31.83;;;15.48;;
51288;SDS011;37372;52.294;5.152;2022-11-23T00:05:17;25.85;;;14.07;;
51288;SDS011;37372;52.294;5.152;2022-11-23T00:07:43;24.60;;;13.43;;
51288;SDS011;37372;52.294;5.152;2022-11-23T00:10:08;23.25;;;13.77;;
51288;SDS011;37372;52.294;5.152;2022-11-23T00:12:33;23.27;;;14.73;;
51288;SDS011;37372;52.294;5.152;2022-11-23T00:14:59;27.42;;;15.02;;
51288;SDS011;37372;52.294;5.152;2022-11-23T00:17:24;26.05;;;16.10;;
51288;SDS011;37372;52.294;5.152;2022-11-23T00:19:49;28.08;;;14.98;;
51288;SDS011;37372;52.294;5.152;2022-11-23T00:22:15;25.92;;;16.05;;
51288;SDS011;37372;52.294;5.152;2022-11-23T00:24:40;30.88;;;15.60;;
51288;SDS011;37372;52.294;5.152;2022-11-23T00:27:05;24.15;;;14.55;;
51288;SDS011;37372;52.294;5.152;2022-11-23T00:29:31;31.15;;;16.35;;
51288;SDS011;37372;52.294;5.152;2022-11-23T00:31:57;35.50;;;15.95;;
51288;SDS011;37372;52.294;5.152;2022-11-23T00:34:22;31.73;;;16.13;;
51288;SDS011;37372;52.294;5.152;2022-11-23T00:36:49;26.27;;;16.88;;
51288;SDS011;37372;52.294;5.152;2022-11-23T00:39:15;22.05;;;15.13;;
51288;SDS011;37372;52.294;5.152;2022-11-23T00:41:40;26.58;;;15.27;;
51288;SDS011;37372;52.294;5.152;2022-11-23T00:44:06;35.13;;;17.25;;
51288;SDS011;37372;52.294;5.152;2022-11-23T00:46:31;29.95;;;17.50;;
51288;SDS011;37372;52.294;5.152;2022-11-23T00:48:57;30.80;;;16.17;;
51288;SDS011;37372;52.294;5.152;2022-11-23T00:51:24;33.42;;;17.30;;
51288;SDS011;37372;52.294;5.152;2022-11-23T00:53:51;30.58;;;16.52;;
51288;SDS011;37372;52.294;5.152;2022-11-23T00:56:19;28.48;;;17.02;;
51288;SDS011;37372;52.294;5.152;2022-11-23T00:58:48;30.23;;;15.68;;
51288;SDS011;37372;52.294;5.152;2022-11-23T01:01:15;29.13;;;15.85;;
51288;SDS011;37372;52.294;5.152;2022-11-23T01:03:44;33.50;;;16.48;;
51288;SDS011;37372;52.294;5.152;2022-11-23T01:06:12;33.15;;;15.75;;
51288;SDS011;37372;52.294;5.152;2022-11-23T01:08:47;28.33;;;15.02;;
51288;SDS011;37372;52.294;5.152;2022-11-23T01:11:13;29.30;;;15.15;;
51288;SDS011;37372;52.294;5.152;2022-11-23T01:13:39;29.55;;;15.30;;
51288;SDS011;37372;52.294;5.152;2022-11-23T01:16:09;30.10;;;16.10;;
51288;SDS011;37372;52.294;5.152;2022-11-23T01:18:38;25.45;;;15.25;;
51288;SDS011;37372;52.294;5.152;2022-11-23T01:21:04;25.85;;;15.60;;
51288;SDS011;37372;52.294;5.152;2022-11-23T01:23:29;31.90;;;16.30;;
51288;SDS011;37372;52.294;5.152;2022-11-23T01:25:55;33.45;;;16.67;;
51288;SDS011;37372;52.294;5.152;2022-11-23T01:28:21;24.42;;;15.95;;
51288;SDS011;37372;52.294;5.152;2022-11-23T01:30:46;29.30;;;16.67;;
51288;SDS011;37372;52.294;5.152;2022-11-23T01:33:11;28.48;;;15.85;;
51288;SDS011;37372;52.294;5.152;2022-11-23T01:35:37;32.00;;;16.30;;
51288;SDS011;37372;52.294;5.152;2022-11-23T01:38:02;26.35;;;15.25;;
51288;SDS011;37372;52.294;5.152;2022-11-23T01:40:28;37.85;;;18.50;;
51288;SDS011;37372;52.294;5.152;2022-11-23T01:42:57;31.42;;;17.10;;
51288;SDS011;37372;52.294;5.152;2022-11-23T01:45:41;28.73;;;16.17;;
51288;SDS011;37372;52.294;5.152;2022-11-23T01:50:53;32.45;;;17.60;;
51288;SDS011;37372;52.294;5.152;2022-11-23T01:53:22;29.90;;;16.70;;
51288;SDS011;37372;52.294;5.152;2022-11-23T01:55:48;33.75;;;16.15;;
51288;SDS011;37372;52.294;5.152;2022-11-23T01:58:17;34.42;;;16.95;;
51288;SDS011;37372;52.294;5.152;2022-11-23T02:00:45;34.03;;;16.15;;
51288;SDS011;37372;52.294;5.152;2022-11-23T02:03:11;30.35;;;16.88;;
51288;SDS011;37372;52.294;5.152;2022-11-23T02:05:39;29.55;;;14.98;;
51288;SDS011;37372;52.294;5.152;2022-11-23T02:08:08;36.08;;;15.98;;
51288;SDS011;37372;52.294;5.152;2022-11-23T02:10:34;34.17;;;15.35;;
51288;SDS011;37372;52.294;5.152;2022-11-23T02:13:01;34.17;;;17.20;;
51288;SDS011;37372;52.294;5.152;2022-11-23T02:15:28;26.73;;;15.98;;
51288;SDS011;37372;52.294;5.152;2022-11-23T02:17:54;32.75;;;16.15;;
51288;SDS011;37372;52.294;5.152;2022-11-23T02:20:20;35.65;;;17.10;;
51288;SDS011;37372;52.294;5.152;2022-11-23T02:25:35;37.95;;;15.80;;
51288;SDS011;37372;52.294;5.152;2022-11-23T02:28:07;34.35;;;14.98;;
51288;SDS011;37372;52.294;5.152;2022-11-23T02:30:41;27.08;;;14.05;;
51288;SDS011;37372;52.294;5.152;2022-11-23T02:33:09;34.47;;;16.23;;
51288;SDS011;37372;52.294;5.152;2022-11-23T02:35:35;29.55;;;15.07;;
51288;SDS011;37372;52.294;5.152;2022-11-23T02:38:01;29.77;;;14.57;;
51288;SDS011;37372;52.294;5.152;2022-11-23T02:40:31;36.38;;;16.27;;
51288;SDS011;37372;52.294;5.152;2022-11-23T02:42:59;33.30;;;15.27;;
51288;SDS011;37372;52.294;5.152;2022-11-23T02:48:05;26.60;;;13.38;;
51288;SDS011;37372;52.294;5.152;2022-11-23T02:50:31;29.52;;;13.77;;
51288;SDS011;37372;52.294;5.152;2022-11-23T02:52:56;42.88;;;15.68;;
51288;SDS011;37372;52.294;5.152;2022-11-23T02:55:22;33.05;;;13.73;;
51288;SDS011;37372;52.294;5.152;2022-11-23T02:57:47;27.60;;;15.10;;
51288;SDS011;37372;52.294;5.152;2022-11-23T03:00:13;30.92;;;14.75;;
51288;SDS011;37372;52.294;5.152;2022-11-23T03:02:39;33.25;;;15.15;;
51288;SDS011;37372;52.294;5.152;2022-11-23T03:05:05;23.67;;;13.73;;
51288;SDS011;37372;52.294;5.152;2022-11-23T03:07:30;29.27;;;16.98;;
51288;SDS011;37372;52.294;5.152;2022-11-23T03:09:56;30.48;;;13.82;;
51288;SDS011;37372;52.294;5.152;2022-11-23T03:12:21;28.85;;;14.88;;
51288;SDS011;37372;52.294;5.152;2022-11-23T03:14:47;26.25;;;13.55;;
51288;SDS011;37372;52.294;5.152;2022-11-23T03:17:12;30.20;;;14.13;;
51288;SDS011;37372;52.294;5.152;2022-11-23T03:19:37;25.10;;;13.23;;
51288;SDS011;37372;52.294;5.152;2022-11-23T03:22:02;29.33;;;12.85;;
51288;SDS011;37372;52.294;5.152;2022-11-23T03:24:28;30.30;;;13.38;;
51288;SDS011;37372;52.294;5.152;2022-11-23T03:26:54;34.92;;;15.13;;
51288;SDS011;37372;52.294;5.152;2022-11-23T03:29:19;32.58;;;15.55;;
51288;SDS011;37372;52.294;5.152;2022-11-23T03:31:45;25.63;;;13.27;;
51288;SDS011;37372;52.294;5.152;2022-11-23T03:34:10;28.42;;;14.45;;
51288;SDS011;37372;52.294;5.152;2022-11-23T03:36:36;26.20;;;14.05;;
51288;SDS011;37372;52.294;5.152;2022-11-23T03:39:01;31.27;;;16.27;;
51288;SDS011;37372;52.294;5.152;2022-11-23T03:41:29;33.33;;;15.00;;
51288;SDS011;37372;52.294;5.152;2022-11-23T03:43:55;25.08;;;14.35;;
51288;SDS011;37372;52.294;5.152;2022-11-23T03:46:20;30.77;;;15.02;;
51288;SDS011;37372;52.294;5.152;2022-11-23T03:48:46;27.67;;;15.32;;
51288;SDS011;37372;52.294;5.152;2022-11-23T03:51:11;28.75;;;14.60;;
51288;SDS011;37372;52.294;5.152;2022-11-23T03:53:37;33.28;;;16.98;;
51288;SDS011;37372;52.294;5.152;2022-11-23T03:56:02;27.70;;;14.75;;
51288;SDS011;37372;52.294;5.152;2022-11-23T03:58:28;28.65;;;15.15;;
51288;SDS011;37372;52.294;5.152;2022-11-23T04:00:53;27.58;;;15.25;;
51288;SDS011;37372;52.294;5.152;2022-11-23T04:03:18;31.02;;;14.32;;
51288;SDS011;37372;52.294;5.152;2022-11-23T04:05:44;26.38;;;14.93;;
51288;SDS011;37372;52.294;5.152;2022-11-23T04:08:09;22.73;;;14.20;;
51288;SDS011;37372;52.294;5.152;2022-11-23T04:10:34;30.38;;;14.90;;
51288;SDS011;37372;52.294;5.152;2022-11-23T04:13:00;27.85;;;14.88;;
51288;SDS011;37372;52.294;5.152;2022-11-23T04:15:26;29.95;;;15.25;;
51288;SDS011;37372;52.294;5.152;2022-11-23T04:17:52;28.35;;;14.15;;
51288;SDS011;37372;52.294;5.152;2022-11-23T04:20:19;26.98;;;14.23;;
51288;SDS011;37372;52.294;5.152;2022-11-23T04:22:44;25.67;;;13.75;;
51288;SDS011;37372;52.294;5.152;2022-11-23T04:25:10;26.50;;;13.07;;
51288;SDS011;37372;52.294;5.152;2022-11-23T04:27:35;26.35;;;14.13;;
51288;SDS011;37372;52.294;5.152;2022-11-23T04:30:00;21.98;;;12.88;;
51288;SDS011;37372;52.294;5.152;2022-11-23T04:32:26;27.00;;;13.63;;
51288;SDS011;37372;52.294;5.152;2022-11-23T04:34:51;22.88;;;12.82;;
51288;SDS011;37372;52.294;5.152;2022-11-23T04:37:16;23.92;;;12.77;;
51288;SDS011;37372;52.294;5.152;2022-11-23T04:39:42;22.67;;;14.18;;
51288;SDS011;37372;52.294;5.152;2022-11-23T04:42:08;23.88;;;12.82;;
51288;SDS011;37372;52.294;5.152;2022-11-23T04:44:35;27.92;;;12.48;;
51288;SDS011;37372;52.294;5.152;2022-11-23T04:47:00;24.00;;;11.07;;
51288;SDS011;37372;52.294;5.152;2022-11-23T04:49:26;18.45;;;12.02;;
51288;SDS011;37372;52.294;5.152;2022-11-23T04:51:52;18.40;;;11.88;;
51288;SDS011;37372;52.294;5.152;2022-11-23T04:54:17;18.63;;;11.30;;
51288;SDS011;37372;52.294;5.152;2022-11-23T04:56:42;20.42;;;11.80;;
51288;SDS011;37372;52.294;5.152;2022-11-23T04:59:08;22.20;;;12.55;;
51288;SDS011;37372;52.294;5.152;2022-11-23T05:01:33;21.48;;;10.90;;
51288;SDS011;37372;52.294;5.152;2022-11-23T05:03:59;22.92;;;12.15;;
51288;SDS011;37372;52.294;5.152;2022-11-23T05:06:24;21.55;;;12.00;;
51288;SDS011;37372;52.294;5.152;2022-11-23T05:08:50;23.70;;;12.30;;
51288;SDS011;37372;52.294;5.152;2022-11-23T05:11:15;21.92;;;11.80;;
51288;SDS011;37372;52.294;5.152;2022-11-23T05:13:40;20.15;;;11.73;;
51288;SDS011;37372;52.294;5.152;2022-11-23T05:16:06;24.15;;;10.93;;
51288;SDS011;37372;52.294;5.152;2022-11-23T05:18:32;19.90;;;11.05;;
51288;SDS011;37372;52.294;5.152;2022-11-23T05:20:57;20.48;;;10.10;;
51288;SDS011;37372;52.294;5.152;2022-11-23T05:23:22;15.63;;;10.40;;
51288;SDS011;37372;52.294;5.152;2022-11-23T05:25:48;20.30;;;9.73;;
51288;SDS011;37372;52.294;5.152;2022-11-23T05:28:14;21.40;;;9.30;;
51288;SDS011;37372;52.294;5.152;2022-11-23T05:30:42;16.10;;;10.23;;
51288;SDS011;37372;52.294;5.152;2022-11-23T05:33:08;20.50;;;9.05;;
51288;SDS011;37372;52.294;5.152;2022-11-23T05:35:33;14.65;;;9.35;;
51288;SDS011;37372;52.294;5.152;2022-11-23T05:37:59;24.55;;;10.15;;
51288;SDS011;37372;52.294;5.152;2022-11-23T05:40:24;19.42;;;9.20;;
51288;SDS011;37372;52.294;5.152;2022-11-23T05:42:57;23.02;;;9.13;;
51288;SDS011;37372;52.294;5.152;2022-11-23T05:45:23;19.88;;;9.73;;
51288;SDS011;37372;52.294;5.152;2022-11-23T05:47:50;19.85;;;9.63;;
51288;SDS011;37372;52.294;5.152;2022-11-23T05:50:17;18.38;;;9.63;;
51288;SDS011;37372;52.294;5.152;2022-11-23T05:52:43;16.65;;;9.15;;
51288;SDS011;37372;52.294;5.152;2022-11-23T05:55:08;21.77;;;9.93;;
51288;SDS011;37372;52.294;5.152;2022-11-23T05:57:33;17.73;;;9.23;;
51288;SDS011;37372;52.294;5.152;2022-11-23T05:59:59;18.50;;;9.32;;
51288;SDS011;37372;52.294;5.152;2022-11-23T06:02:24;23.25;;;10.95;;
51288;SDS011;37372;52.294;5.152;2022-11-23T06:04:50;19.33;;;10.75;;
51288;SDS011;37372;52.294;5.152;2022-11-23T06:07:15;14.95;;;9.20;;
51288;SDS011;37372;52.294;5.152;2022-11-23T06:09:41;22.98;;;10.05;;
51288;SDS011;37372;52.294;5.152;2022-11-23T06:12:06;24.33;;;10.65;;
51288;SDS011;37372;52.294;5.152;2022-11-23T06:14:32;21.02;;;10.02;;
51288;SDS011;37372;52.294;5.152;2022-11-23T06:16:57;21.80;;;10.88;;
51288;SDS011;37372;52.294;5.152;2022-11-23T06:19:22;19.15;;;10.38;;
51288;SDS011;37372;52.294;5.152;2022-11-23T06:21:48;23.83;;;10.50;;
51288;SDS011;37372;52.294;5.152;2022-11-23T06:24:13;26.85;;;10.98;;
51288;SDS011;37372;52.294;5.152;2022-11-23T06:26:38;20.52;;;10.02;;
51288;SDS011;37372;52.294;5.152;2022-11-23T06:29:04;19.48;;;10.90;;
51288;SDS011;37372;52.294;5.152;2022-11-23T06:31:29;24.48;;;10.48;;
51288;SDS011;37372;52.294;5.152;2022-11-23T06:33:55;22.77;;;10.52;;
51288;SDS011;37372;52.294;5.152;2022-11-23T06:36:20;16.98;;;9.52;;
51288;SDS011;37372;52.294;5.152;2022-11-23T06:38:46;18.13;;;9.18;;
51288;SDS011;37372;52.294;5.152;2022-11-23T06:41:12;24.40;;;11.27;;
51288;SDS011;37372;52.294;5.152;2022-11-23T06:43:37;26.10;;;10.25;;
51288;SDS011;37372;52.294;5.152;2022-11-23T06:46:03;19.55;;;9.13;;
51288;SDS011;37372;52.294;5.152;2022-11-23T06:48:30;21.80;;;9.48;;
51288;SDS011;37372;52.294;5.152;2022-11-23T06:50:59;22.17;;;10.07;;
51288;SDS011;37372;52.294;5.152;2022-11-23T06:53:25;22.88;;;10.20;;
51288;SDS011;37372;52.294;5.152;2022-11-23T06:55:52;20.38;;;9.52;;
51288;SDS011;37372;52.294;5.152;2022-11-23T06:58:21;21.70;;;10.27;;
51288;SDS011;37372;52.294;5.152;2022-11-23T07:00:46;21.65;;;9.80;;
51288;SDS011;37372;52.294;5.152;2022-11-23T07:03:19;21.33;;;9.52;;
51288;SDS011;37372;52.294;5.152;2022-11-23T07:05:48;21.85;;;9.48;;
51288;SDS011;37372;52.294;5.152;2022-11-23T07:08:14;16.80;;;10.23;;
51288;SDS011;37372;52.294;5.152;2022-11-23T07:10:39;18.27;;;10.30;;
51288;SDS011;37372;52.294;5.152;2022-11-23T07:13:05;20.40;;;9.05;;
51288;SDS011;37372;52.294;5.152;2022-11-23T07:15:32;20.48;;;10.18;;
51288;SDS011;37372;52.294;5.152;2022-11-23T07:17:57;22.52;;;12.43;;
51288;SDS011;37372;52.294;5.152;2022-11-23T07:20:23;20.55;;;9.90;;
51288;SDS011;37372;52.294;5.152;2022-11-23T07:22:57;21.95;;;9.35;;
51288;SDS011;37372;52.294;5.152;2022-11-23T07:25:30;21.50;;;8.73;;
51288;SDS011;37372;52.294;5.152;2022-11-23T07:27:57;20.30;;;8.93;;
51288;SDS011;37372;52.294;5.152;2022-11-23T07:30:23;19.02;;;7.05;;
51288;SDS011;37372;52.294;5.152;2022-11-23T07:32:49;18.58;;;7.60;;
51288;SDS011;37372;52.294;5.152;2022-11-23T07:35:15;19.42;;;6.40;;
51288;SDS011;37372;52.294;5.152;2022-11-23T07:37:41;15.32;;;6.00;;
51288;SDS011;37372;52.294;5.152;2022-11-23T07:40:06;25.48;;;5.43;;
51288;SDS011;37372;52.294;5.152;2022-11-23T07:42:32;12.85;;;5.18;;
51288;SDS011;37372;52.294;5.152;2022-11-23T07:44:57;24.55;;;5.25;;
51288;SDS011;37372;52.294;5.152;2022-11-23T07:47:22;14.60;;;4.20;;
51288;SDS011;37372;52.294;5.152;2022-11-23T07:49:48;17.20;;;5.95;;
51288;SDS011;37372;52.294;5.152;2022-11-23T07:52:13;21.77;;;4.30;;
51288;SDS011;37372;52.294;5.152;2022-11-23T07:54:39;16.90;;;4.05;;
51288;SDS011;37372;52.294;5.152;2022-11-23T07:57:04;14.07;;;2.92;;
51288;SDS011;37372;52.294;5.152;2022-11-23T07:59:29;12.45;;;2.78;;
51288;SDS011;37372;52.294;5.152;2022-11-23T08:01:55;10.35;;;2.25;;
51288;SDS011;37372;52.294;5.152;2022-11-23T08:04:21;12.27;;;3.10;;
51288;SDS011;37372;52.294;5.152;2022-11-23T08:06:47;9.10;;;2.38;;
51288;SDS011;37372;52.294;5.152;2022-11-23T08:09:12;8.13;;;3.33;;
51288;SDS011;37372;52.294;5.152;2022-11-23T08:11:38;11.57;;;1.95;;
51288;SDS011;37372;52.294;5.152;2022-11-23T08:14:03;20.13;;;3.35;;
51288;SDS011;37372;52.294;5.152;2022-11-23T08:16:28;13.88;;;3.08;;
51288;SDS011;37372;52.294;5.152;2022-11-23T08:18:54;14.70;;;3.88;;
51288;SDS011;37372;52.294;5.152;2022-11-23T08:21:20;20.17;;;3.13;;
51288;SDS011;37372;52.294;5.152;2022-11-23T08:23:46;12.52;;;2.97;;
51288;SDS011;37372;52.294;5.152;2022-11-23T08:26:11;16.98;;;2.30;;
51288;SDS011;37372;52.294;5.152;2022-11-23T08:28:36;16.33;;;3.17;;
51288;SDS011;37372;52.294;5.152;2022-11-23T08:31:09;6.47;;;2.00;;
51288;SDS011;37372;52.294;5.152;2022-11-23T08:33:35;15.93;;;3.67;;
51288;SDS011;37372;52.294;5.152;2022-11-23T08:36:04;17.25;;;3.05;;
51288;SDS011;37372;52.294;5.152;2022-11-23T08:38:31;12.68;;;2.38;;
51288;SDS011;37372;52.294;5.152;2022-11-23T08:40:57;8.70;;;2.30;;
51288;SDS011;37372;52.294;5.152;2022-11-23T08:43:26;20.77;;;3.58;;
51288;SDS011;37372;52.294;5.152;2022-11-23T08:45:56;11.07;;;3.42;;
51288;SDS011;37372;52.294;5.152;2022-11-23T08:48:22;10.95;;;2.88;;
51288;SDS011;37372;52.294;5.152;2022-11-23T08:50:48;12.63;;;3.05;;
51288;SDS011;37372;52.294;5.152;2022-11-23T08:53:14;17.95;;;3.13;;
51288;SDS011;37372;52.294;5.152;2022-11-23T08:55:40;16.80;;;2.28;;
51288;SDS011;37372;52.294;5.152;2022-11-23T08:58:05;10.63;;;2.40;;
51288;SDS011;37372;52.294;5.152;2022-11-23T09:00:32;14.73;;;3.55;;
51288;SDS011;37372;52.294;5.152;2022-11-23T09:02:58;19.50;;;3.35;;
51288;SDS011;37372;52.294;5.152;2022-11-23T09:05:24;12.15;;;2.75;;
51288;SDS011;37372;52.294;5.152;2022-11-23T09:07:50;11.93;;;3.15;;
51288;SDS011;37372;52.294;5.152;2022-11-23T09:10:16;14.32;;;2.80;;
51288;SDS011;37372;52.294;5.152;2022-11-23T09:12:41;15.65;;;2.42;;
51288;SDS011;37372;52.294;5.152;2022-11-23T09:15:07;13.95;;;3.33;;
51288;SDS011;37372;52.294;5.152;2022-11-23T09:17:33;14.60;;;3.35;;
51288;SDS011;37372;52.294;5.152;2022-11-23T09:19:59;14.88;;;2.72;;
51288;SDS011;37372;52.294;5.152;2022-11-23T09:22:24;14.20;;;2.70;;
51288;SDS011;37372;52.294;5.152;2022-11-23T09:24:53;10.93;;;2.65;;
51288;SDS011;37372;52.294;5.152;2022-11-23T09:27:19;13.10;;;3.53;;
51288;SDS011;37372;52.294;5.152;2022-11-23T09:29:44;11.80;;;2.22;;
51288;SDS011;37372;52.294;5.152;2022-11-23T09:32:10;10.90;;;2.15;;
51288;SDS011;37372;52.294;5.152;2022-11-23T09:34:35;11.65;;;2.55;;
51288;SDS011;37372;52.294;5.152;2022-11-23T09:37:01;18.52;;;3.03;;
51288;SDS011;37372;52.294;5.152;2022-11-23T09:39:30;20.20;;;4.22;;
51288;SDS011;37372;52.294;5.152;2022-11-23T09:42:09;20.33;;;3.13;;
51288;SDS011;37372;52.294;5.152;2022-11-23T09:50:46;19.70;;;3.25;;
51288;SDS011;37372;52.294;5.152;2022-11-23T09:53:29;15.23;;;2.15;;
51288;SDS011;37372;52.294;5.152;2022-11-23T09:56:04;16.20;;;2.35;;
51288;SDS011;37372;52.294;5.152;2022-11-23T09:58:38;14.43;;;3.05;;
51288;SDS011;37372;52.294;5.152;2022-11-23T10:01:06;17.20;;;2.60;;
51288;SDS011;37372;52.294;5.152;2022-11-23T10:03:36;19.10;;;2.90;;
51288;SDS011;37372;52.294;5.152;2022-11-23T10:06:09;11.00;;;1.77;;
51288;SDS011;37372;52.294;5.152;2022-11-23T10:11:29;13.75;;;2.75;;
51288;SDS011;37372;52.294;5.152;2022-11-23T10:14:03;13.30;;;2.55;;
51288;SDS011;37372;52.294;5.152;2022-11-23T10:16:58;18.95;;;2.55;;
51288;SDS011;37372;52.294;5.152;2022-11-23T10:19:44;13.73;;;3.10;;
51288;SDS011;37372;52.294;5.152;2022-11-23T10:22:20;12.43;;;2.00;;
51288;SDS011;37372;52.294;5.152;2022-11-23T10:24:53;14.95;;;2.15;;
51288;SDS011;37372;52.294;5.152;2022-11-23T10:27:20;13.43;;;3.22;;
51288;SDS011;37372;52.294;5.152;2022-11-23T10:29:48;10.43;;;1.70;;
51288;SDS011;37372;52.294;5.152;2022-11-23T10:37:51;14.35;;;3.55;;
51288;SDS011;37372;52.294;5.152;2022-11-23T10:40:33;11.65;;;2.17;;
51288;SDS011;37372;52.294;5.152;2022-11-23T10:43:04;13.57;;;2.00;;
51288;SDS011;37372;52.294;5.152;2022-11-23T10:45:45;12.07;;;2.33;;
51288;SDS011;37372;52.294;5.152;2022-11-23T10:48:11;13.40;;;2.35;;
51288;SDS011;37372;52.294;5.152;2022-11-23T10:50:36;21.30;;;2.67;;
51288;SDS011;37372;52.294;5.152;2022-11-23T10:55:45;16.30;;;2.35;;
51288;SDS011;37372;52.294;5.152;2022-11-23T10:58:30;10.73;;;2.47;;
51288;SDS011;37372;52.294;5.152;2022-11-23T11:01:01;14.32;;;3.38;;
51288;SDS011;37372;52.294;5.152;2022-11-23T11:03:34;15.10;;;2.47;;
51288;SDS011;37372;52.294;5.152;2022-11-23T11:06:00;18.00;;;3.03;;
51288;SDS011;37372;52.294;5.152;2022-11-23T11:08:30;19.08;;;2.42;;
51288;SDS011;37372;52.294;5.152;2022-11-23T11:11:01;19.15;;;3.60;;
51288;SDS011;37372;52.294;5.152;2022-11-23T11:13:43;17.50;;;3.00;;
51288;SDS011;37372;52.294;5.152;2022-11-23T11:16:18;13.63;;;3.42;;
51288;SDS011;37372;52.294;5.152;2022-11-23T11:18:45;15.35;;;3.00;;
51288;SDS011;37372;52.294;5.152;2022-11-23T11:21:32;12.32;;;2.00;;
51288;SDS011;37372;52.294;5.152;2022-11-23T11:26:24;13.40;;;2.53;;
51288;SDS011;37372;52.294;5.152;2022-11-23T11:28:53;9.98;;;2.50;;
51288;SDS011;37372;52.294;5.152;2022-11-23T11:34:19;10.27;;;2.38;;
51288;SDS011;37372;52.294;5.152;2022-11-23T11:36:53;14.95;;;2.53;;
51288;SDS011;37372;52.294;5.152;2022-11-23T11:39:33;8.05;;;2.15;;
51288;SDS011;37372;52.294;5.152;2022-11-23T11:42:04;17.13;;;3.03;;
51288;SDS011;37372;52.294;5.152;2022-11-23T11:44:34;12.77;;;2.47;;
51288;SDS011;37372;52.294;5.152;2022-11-23T11:47:09;11.18;;;2.28;;
51288;SDS011;37372;52.294;5.152;2022-11-23T11:49:46;9.65;;;2.75;;
51288;SDS011;37372;52.294;5.152;2022-11-23T11:52:14;9.05;;;2.00;;
51288;SDS011;37372;52.294;5.152;2022-11-23T11:54:48;14.73;;;3.03;;
51288;SDS011;37372;52.294;5.152;2022-11-23T12:00:02;7.85;;;2.17;;
51288;SDS011;37372;52.294;5.152;2022-11-23T12:13:17;10.30;;;3.55;;
51288;SDS011;37372;52.294;5.152;2022-11-23T12:15:46;12.23;;;2.42;;
51288;SDS011;37372;52.294;5.152;2022-11-23T12:23:48;11.32;;;1.50;;
51288;SDS011;37372;52.294;5.152;2022-11-23T12:26:38;11.73;;;2.33;;
51288;SDS011;37372;52.294;5.152;2022-11-23T12:31:55;6.28;;;1.67;;
51288;SDS011;37372;52.294;5.152;2022-11-23T12:43:17;10.43;;;2.00;;
51288;SDS011;37372;52.294;5.152;2022-11-23T12:53:39;9.05;;;1.70;;
51288;SDS011;37372;52.294;5.152;2022-11-23T12:59:07;9.48;;;1.65;;
51288;SDS011;37372;52.294;5.152;2022-11-23T13:01:35;8.48;;;1.77;;
51288;SDS011;37372;52.294;5.152;2022-11-23T13:07:22;9.90;;;1.75;;
51288;SDS011;37372;52.294;5.152;2022-11-23T13:15:45;6.43;;;1.25;;
51288;SDS011;37372;52.294;5.152;2022-11-23T13:23:24;9.30;;;1.92;;
51288;SDS011;37372;52.294;5.152;2022-11-23T13:28:41;8.35;;;1.17;;
51288;SDS011;37372;52.294;5.152;2022-11-23T13:33:40;8.98;;;1.52;;
51288;SDS011;37372;52.294;5.152;2022-11-23T13:36:10;11.68;;;1.65;;
51288;SDS011;37372;52.294;5.152;2022-11-23T13:38:38;6.68;;;1.55;;
51288;SDS011;37372;52.294;5.152;2022-11-23T13:43:57;9.63;;;1.92;;
51288;SDS011;37372;52.294;5.152;2022-11-23T13:46:35;7.32;;;1.40;;
51288;SDS011;37372;52.294;5.152;2022-11-23T13:49:01;9.68;;;1.92;;
51288;SDS011;37372;52.294;5.152;2022-11-23T13:51:30;5.13;;;1.52;;
51288;SDS011;37372;52.294;5.152;2022-11-23T13:53:58;13.00;;;1.75;;
51288;SDS011;37372;52.294;5.152;2022-11-23T13:56:30;13.43;;;1.95;;
51288;SDS011;37372;52.294;5.152;2022-11-23T13:58:59;5.75;;;1.42;;
51288;SDS011;37372;52.294;5.152;2022-11-23T14:01:59;8.43;;;1.33;;
51288;SDS011;37372;52.294;5.152;2022-11-23T14:04:40;6.63;;;1.33;;
51288;SDS011;37372;52.294;5.152;2022-11-23T14:10:04;9.02;;;2.70;;
51288;SDS011;37372;52.294;5.152;2022-11-23T14:15:33;9.50;;;1.30;;
51288;SDS011;37372;52.294;5.152;2022-11-23T14:18:20;6.60;;;1.80;;
51288;SDS011;37372;52.294;5.152;2022-11-23T14:20:57;8.40;;;1.55;;
51288;SDS011;37372;52.294;5.152;2022-11-23T14:31:59;9.98;;;1.70;;
51288;SDS011;37372;52.294;5.152;2022-11-23T14:43:03;9.38;;;1.38;;
51288;SDS011;37372;52.294;5.152;2022-11-23T14:45:30;8.77;;;2.08;;
51288;SDS011;37372;52.294;5.152;2022-11-23T14:50:52;6.10;;;2.05;;
51288;SDS011;37372;52.294;5.152;2022-11-23T14:53:27;6.57;;;1.73;;
51288;SDS011;37372;52.294;5.152;2022-11-23T14:55:56;8.20;;;1.60;;
51288;SDS011;37372;52.294;5.152;2022-11-23T14:58:22;9.85;;;1.60;;
51288;SDS011;37372;52.294;5.152;2022-11-23T15:00:57;5.57;;;1.80;;
51288;SDS011;37372;52.294;5.152;2022-11-23T15:03:28;9.95;;;1.67;;
51288;SDS011;37372;52.294;5.152;2022-11-23T15:05:57;7.93;;;1.40;;
51288;SDS011;37372;52.294;5.152;2022-11-23T15:08:42;5.20;;;1.83;;
51288;SDS011;37372;52.294;5.152;2022-11-23T15:11:17;7.70;;;1.83;;
51288;SDS011;37372;52.294;5.152;2022-11-23T15:13:48;8.27;;;1.48;;
51288;SDS011;37372;52.294;5.152;2022-11-23T15:16:17;13.05;;;2.47;;
51288;SDS011;37372;52.294;5.152;2022-11-23T15:18:44;6.82;;;1.45;;
51288;SDS011;37372;52.294;5.152;2022-11-23T15:21:15;7.38;;;1.80;;
51288;SDS011;37372;52.294;5.152;2022-11-23T15:23:44;7.90;;;1.92;;
51288;SDS011;37372;52.294;5.152;2022-11-23T15:26:21;7.72;;;1.75;;
51288;SDS011;37372;52.294;5.152;2022-11-23T15:28:50;10.02;;;2.03;;
51288;SDS011;37372;52.294;5.152;2022-11-23T15:34:17;5.82;;;2.25;;
51288;SDS011;37372;52.294;5.152;2022-11-23T15:36:42;6.50;;;2.15;;
51288;SDS011;37372;52.294;5.152;2022-11-23T15:39:13;10.55;;;1.80;;
51288;SDS011;37372;52.294;5.152;2022-11-23T15:41:41;7.03;;;1.67;;
51288;SDS011;37372;52.294;5.152;2022-11-23T15:44:15;5.72;;;1.48;;
51288;SDS011;37372;52.294;5.152;2022-11-23T15:46:45;6.90;;;1.77;;
51288;SDS011;37372;52.294;5.152;2022-11-23T15:49:13;6.50;;;2.22;;
51288;SDS011;37372;52.294;5.152;2022-11-23T15:51:40;7.30;;;2.08;;
51288;SDS011;37372;52.294;5.152;2022-11-23T15:54:14;7.32;;;2.00;;
51288;SDS011;37372;52.294;5.152;2022-11-23T15:56:44;6.10;;;1.75;;
51288;SDS011;37372;52.294;5.152;2022-11-23T15:59:27;4.93;;;2.20;;
51288;SDS011;37372;52.294;5.152;2022-11-23T16:01:54;10.40;;;2.80;;
51288;SDS011;37372;52.294;5.152;2022-11-23T16:04:31;7.97;;;1.65;;
51288;SDS011;37372;52.294;5.152;2022-11-23T16:07:09;7.47;;;2.70;;
51288;SDS011;37372;52.294;5.152;2022-11-23T16:09:41;8.70;;;1.73;;
51288;SDS011;37372;52.294;5.152;2022-11-23T16:12:26;8.73;;;2.53;;
51288;SDS011;37372;52.294;5.152;2022-11-23T16:14:54;8.18;;;3.25;;
51288;SDS011;37372;52.294;5.152;2022-11-23T16:19:51;9.95;;;2.65;;
51288;SDS011;37372;52.294;5.152;2022-11-23T16:22:23;10.48;;;2.55;;
51288;SDS011;37372;52.294;5.152;2022-11-23T16:25:06;5.63;;;2.80;;
51288;SDS011;37372;52.294;5.152;2022-11-23T16:27:43;10.68;;;3.00;;
51288;SDS011;37372;52.294;5.152;2022-11-23T16:30:24;10.43;;;3.53;;
51288;SDS011;37372;52.294;5.152;2022-11-23T16:32:52;10.80;;;3.13;;
51288;SDS011;37372;52.294;5.152;2022-11-23T16:35:18;6.70;;;4.03;;
51288;SDS011;37372;52.294;5.152;2022-11-23T16:37:44;7.45;;;2.88;;
51288;SDS011;37372;52.294;5.152;2022-11-23T16:40:10;5.38;;;3.47;;
51288;SDS011;37372;52.294;5.152;2022-11-23T16:42:37;9.40;;;4.10;;